Time;durP1;ratioP1;P1;durP2;ratioP2;P2;SDS_P1;SDS_P2;PMS_P1;PMS_P2;Temp;Humidity;BMP_temperature;BMP_pressure;BME280_temperature;BME280_humidity;BME280_pressure;Samples;Min_cycle;Max_cycle;Signal;HPM_P1;HPM_P2
2024/02/17 00:02:41;;;;;;;12.10;6.80;;;;;;;9.16;76.88;100025.66;217464;1257;140003;-70
2024/02/17 00:07:45;;;;;;;12.30;7.60;;;;;;;9.15;76.82;100031.05;217940;1257;141110;-71
2024/02/17 00:12:50;;;;;;;22.80;7.10;;;;;;;9.16;77.14;100028.83;218329;1257;140880;-69
2024/02/17 00:17:55;;;;;;;12.50;8.50;;;;;;;9.17;77.11;100033.12;217452;1262;141091;-69
2024/02/17 00:22:59;;;;;;;12.50;8.30;;;;;;;9.16;77.28;100031.19;217093;1258;161341;-69
2024/02/17 00:28:03;;;;;;;12.90;8.20;;;;;;;9.15;77.39;100029.65;217799;1257;140903;-69
2024/02/17 00:33:08;;;;;;;12.80;6.80;;;;;;;9.10;77.60;100026.00;217055;1261;140275;-69
2024/02/17 00:38:13;;;;;;;16.50;8.10;;;;;;;9.07;77.88;100029.73;217007;1262;140615;-70
2024/02/17 00:43:17;;;;;;;13.30;8.50;;;;;;;9.02;78.35;100036.81;217207;1261;140075;-69
2024/02/17 00:48:23;;;;;;;14.30;9.00;;;;;;;8.97;78.77;100038.66;217457;1263;141374;-74
2024/02/17 00:53:28;;;;;;;9.60;7.70;;;;;;;8.92;78.92;100038.00;216927;1261;140989;-72
2024/02/17 00:58:34;;;;;;;12.90;8.60;;;;;;;8.86;79.15;100034.05;216854;1262;140143;-71
2024/02/17 01:03:38;;;;;;;11.60;8.20;;;;;;;8.80;79.40;100036.10;217481;1258;140323;-69
2024/02/17 01:08:43;;;;;;;12.90;9.10;;;;;;;8.78;79.63;100040.81;217932;1257;142982;-69
2024/02/17 01:13:48;;;;;;;15.20;8.10;;;;;;;8.76;79.98;100036.98;217385;1258;140117;-70
2024/02/17 01:18:54;;;;;;;11.50;8.30;;;;;;;8.74;79.90;100037.90;217385;1257;140598;-69
2024/02/17 01:24:00;;;;;;;10.00;7.30;;;;;;;8.72;80.02;100041.88;217975;1257;140652;-69
2024/02/17 01:29:05;;;;;;;11.90;8.70;;;;;;;8.70;80.05;100046.21;217500;1257;141364;-68
2024/02/17 01:34:10;;;;;;;12.60;8.40;;;;;;;8.71;80.13;100047.94;219338;1257;140904;-69
2024/02/17 01:39:14;;;;;;;13.70;8.20;;;;;;;8.70;80.18;100051.54;219049;1257;140563;-70
2024/02/17 01:44:19;;;;;;;9.90;7.30;;;;;;;8.73;80.34;100050.25;218778;1257;141621;-71
2024/02/17 01:49:24;;;;;;;18.10;9.10;;;;;;;8.74;80.39;100045.78;217124;1261;140070;-72
2024/02/17 01:54:30;;;;;;;15.20;9.50;;;;;;;8.75;80.75;100043.73;218862;1257;140533;-73
2024/02/17 01:59:34;;;;;;;13.10;9.40;;;;;;;8.74;80.94;100044.55;217213;1257;141333;-75
2024/02/17 02:04:39;;;;;;;10.60;7.40;;;;;;;8.70;80.96;100047.56;217455;1257;142359;-74
2024/02/17 02:09:43;;;;;;;15.30;8.90;;;;;;;8.66;81.01;100042.61;218878;1258;140609;-72
2024/02/17 02:15:04;;;;;;;13.40;8.80;;;;;;;8.63;81.21;100045.33;217862;1257;140447;-71
2024/02/17 02:20:13;;;;;;;11.40;8.40;;;;;;;8.61;81.42;100044.30;217861;1257;140012;-71
2024/02/17 02:25:25;;;;;;;11.00;8.10;;;;;;;8.60;81.51;100041.95;218038;1257;140544;-69
2024/02/17 02:30:29;;;;;;;12.60;7.80;;;;;;;8.61;81.88;100036.70;217015;1258;140043;-68
2024/02/17 02:35:34;;;;;;;15.00;9.10;;;;;;;8.63;81.95;100037.80;217460;1257;141263;-69
2024/02/17 02:40:38;;;;;;;10.50;8.50;;;;;;;8.66;82.08;100039.86;217153;1258;140027;-73
2024/02/17 02:45:43;;;;;;;14.10;8.50;;;;;;;8.68;82.09;100039.27;217181;1261;140256;-69
2024/02/17 02:50:47;;;;;;;13.30;8.20;;;;;;;8.70;82.13;100040.98;217196;1257;140301;-71
2024/02/17 02:55:56;;;;;;;12.60;8.60;;;;;;;8.71;82.15;100047.12;218130;1257;140402;-71
2024/02/17 03:01:01;;;;;;;14.60;8.80;;;;;;;8.73;82.09;100042.61;217505;1262;140421;-68
2024/02/17 03:06:06;;;;;;;11.40;8.60;;;;;;;8.76;82.15;100050.85;217766;1257;140748;-69
2024/02/17 03:11:14;;;;;;;11.60;9.10;;;;;;;8.77;82.17;100048.48;217108;1261;140650;-69
2024/02/17 03:16:26;;;;;;;13.70;9.60;;;;;;;8.78;82.33;100051.45;218019;1257;141573;-68
2024/02/17 03:21:34;;;;;;;12.90;8.60;;;;;;;8.79;82.38;100052.95;216983;1261;140260;-69
2024/02/17 03:26:40;;;;;;;12.80;9.00;;;;;;;8.79;82.47;100053.08;218988;1260;140004;-69
2024/02/17 03:31:45;;;;;;;13.00;9.00;;;;;;;8.80;82.70;100061.66;219555;1257;140529;-70
2024/02/17 03:36:49;;;;;;;12.20;8.10;;;;;;;8.82;82.69;100075.27;218678;1258;140940;-71
2024/02/17 03:41:55;;;;;;;15.60;10.10;;;;;;;8.84;82.86;100080.41;218528;1261;140957;-69
2024/02/17 03:47:15;;;;;;;12.80;9.00;;;;;;;8.85;82.87;100087.89;219642;1257;143760;-68
2024/02/17 03:52:19;;;;;;;11.20;7.30;;;;;;;8.87;83.08;100089.73;216960;1257;141332;-69
2024/02/17 03:57:24;;;;;;;9.60;6.80;;;;;;;8.88;83.27;100093.90;218356;1257;140940;-73
2024/02/17 04:02:28;;;;;;;16.80;10.30;;;;;;;8.86;83.49;100099.40;218055;1257;140369;-70
2024/02/17 04:07:33;;;;;;;13.40;9.40;;;;;;;8.85;84.00;100105.75;217563;1257;140398;-69
2024/02/17 04:12:40;;;;;;;11.40;8.80;;;;;;;8.80;84.43;100107.87;217175;1257;232345;-70
2024/02/17 04:17:45;;;;;;;;;;;;;;;8.75;84.90;100109.54;217870;1261;141257;-69
2024/02/17 04:22:49;;;;;;;12.30;8.70;;;;;;;8.67;85.54;100118.20;217903;1257;126688;-70
2024/02/17 04:27:53;;;;;;;10.60;8.00;;;;;;;8.65;86.03;100117.67;217162;1258;140230;-71
2024/02/17 04:32:58;;;;;;;13.90;9.60;;;;;;;8.62;86.53;100123.21;217541;1258;141246;-70
2024/02/17 04:38:03;;;;;;;13.10;11.40;;;;;;;8.59;86.92;100126.04;216108;1261;601084;-71
2024/02/17 04:43:07;;;;;;;15.20;9.70;;;;;;;8.59;87.21;100127.39;217350;1258;145215;-70
2024/02/17 04:48:12;;;;;;;12.10;8.60;;;;;;;8.55;87.47;100126.23;217403;1257;140487;-71
2024/02/17 04:53:17;;;;;;;17.20;9.90;;;;;;;8.53;87.90;100125.68;217875;1259;140508;-70
2024/02/17 04:58:22;;;;;;;9.30;7.70;;;;;;;8.55;88.44;100127.98;218385;1257;140357;-70
2024/02/17 05:03:26;;;;;;;11.70;8.30;;;;;;;8.55;88.58;100127.92;216908;1261;140563;-70
2024/02/17 05:08:31;;;;;;;13.80;9.90;;;;;;;8.54;89.07;100134.84;217308;1261;140906;-71
2024/02/17 05:13:36;;;;;;;15.10;10.50;;;;;;;8.55;89.25;100137.34;217812;1257;140214;-72
2024/02/17 05:18:40;;;;;;;15.30;12.60;;;;;;;8.57;89.62;100137.66;217083;1258;141491;-71
2024/02/17 05:23:45;;;;;;;12.40;10.30;;;;;;;8.60;89.97;100140.42;219796;1257;140519;-73
2024/02/17 05:28:50;;;;;;;15.30;10.50;;;;;;;8.64;90.19;100143.52;218324;1257;140925;-72
2024/02/17 05:33:54;;;;;;;12.50;10.60;;;;;;;8.67;90.33;100150.34;219645;1258;140937;-72
2024/02/17 05:38:58;;;;;;;14.80;10.90;;;;;;;8.70;90.56;100153.64;219686;1257;142052;-71
2024/02/17 05:44:03;;;;;;;12.80;10.10;;;;;;;8.75;90.55;100154.02;218568;1257;140359;-72
2024/02/17 05:49:07;;;;;;;17.20;10.90;;;;;;;8.78;90.73;100158.83;216909;1261;140492;-72
2024/02/17 05:54:14;;;;;;;18.10;12.70;;;;;;;8.81;90.78;100159.55;216575;1259;141346;-72
2024/02/17 05:59:19;;;;;;;17.20;13.00;;;;;;;8.80;91.13;100164.05;216892;1261;140205;-71
2024/02/17 06:04:25;;;;;;;17.30;11.70;;;;;;;8.80;91.26;100178.41;216582;1258;140564;-71
2024/02/17 06:09:31;;;;;;;16.10;12.50;;;;;;;8.81;91.54;100177.31;216650;1260;140919;-72
2024/02/17 06:14:35;;;;;;;15.90;12.00;;;;;;;8.83;91.71;100174.92;217002;1257;140548;-71
2024/02/17 06:25:04;;;;;;;17.10;12.70;;;;;;;8.83;92.09;100180.41;217460;1259;140720;-72
2024/02/17 06:30:14;;;;;;;15.10;11.10;;;;;;;8.82;92.25;100187.15;216802;1261;141909;-71
2024/02/17 06:35:18;;;;;;;16.00;12.00;;;;;;;8.84;92.35;100193.16;216576;1261;142533;-71
2024/02/17 06:40:22;;;;;;;17.90;11.80;;;;;;;8.86;92.45;100197.27;216476;1258;140675;-72
2024/02/17 06:45:26;;;;;;;14.60;11.60;;;;;;;8.88;92.71;100199.50;216611;1258;140890;-71
2024/02/17 06:50:31;;;;;;;15.50;12.30;;;;;;;8.90;92.86;100203.09;216939;1261;140653;-72
2024/02/17 06:55:36;;;;;;;16.60;11.20;;;;;;;8.90;92.82;100211.42;216789;1257;140466;-73
2024/02/17 07:00:41;;;;;;;14.50;12.20;;;;;;;8.93;93.19;100231.55;216682;1261;140648;-72
2024/02/17 07:05:45;;;;;;;15.80;11.90;;;;;;;8.96;93.30;100245.33;216570;1261;140294;-71
2024/02/17 07:10:49;;;;;;;16.10;13.10;;;;;;;8.96;93.49;100249.79;216707;1262;141119;-72
2024/02/17 07:15:53;;;;;;;12.80;9.90;;;;;;;8.97;93.65;100251.20;216789;1259;141542;-72
2024/02/17 07:20:58;;;;;;;16.20;11.70;;;;;;;9.01;93.77;100255.73;216795;1260;140335;-72
2024/02/17 07:26:03;;;;;;;28.80;10.10;;;;;;;9.08;94.09;100257.30;216668;1257;141373;-72
2024/02/17 07:31:07;;;;;;;12.50;9.00;;;;;;;9.09;94.09;100262.58;216655;1260;142144;-71
2024/02/17 07:36:11;;;;;;;12.50;9.20;;;;;;;9.10;94.15;100270.34;216596;1257;140896;-72
2024/02/17 07:41:16;;;;;;;11.70;9.00;;;;;;;9.10;94.31;100274.15;216705;1261;141225;-72
2024/02/17 07:46:21;;;;;;;10.60;9.50;;;;;;;9.13;94.55;100279.01;216866;1257;140564;-72
2024/02/17 07:51:25;;;;;;;13.80;10.00;;;;;;;9.15;94.75;100283.14;216512;1260;140351;-72
2024/02/17 07:56:30;;;;;;;11.60;8.60;;;;;;;9.20;94.98;100284.27;216722;1257;141869;-71
2024/02/17 08:01:33;;;;;;;12.70;9.30;;;;;;;9.23;95.25;100292.94;216891;1261;140281;-72
2024/02/17 08:06:38;;;;;;;9.80;8.00;;;;;;;9.29;95.45;100294.71;216785;1258;211314;-72
2024/02/17 08:11:47;;;;;;;11.90;8.00;;;;;;;9.34;95.60;100301.41;216474;1258;141628;-72
2024/02/17 08:16:52;;;;;;;8.40;7.40;;;;;;;9.40;95.57;100301.79;216695;1257;140670;-72
2024/02/17 08:21:56;;;;;;;11.10;8.00;;;;;;;9.44;95.67;100306.73;216435;1261;141061;-71
2024/02/17 08:27:00;;;;;;;10.80;9.00;;;;;;;9.44;95.56;100310.66;216830;1257;140404;-72
2024/02/17 08:32:05;;;;;;;8.20;7.20;;;;;;;9.43;95.67;100319.98;217015;1260;142186;-71
2024/02/17 08:37:12;;;;;;;12.50;9.40;;;;;;;9.48;96.14;100318.39;216803;1259;140345;-72
2024/02/17 08:42:16;;;;;;;13.70;11.40;;;;;;;9.56;96.00;100322.81;216789;1262;141794;-73
2024/02/17 08:47:22;;;;;;;12.90;9.80;;;;;;;9.57;96.08;100329.77;216757;1257;140396;-72
2024/02/17 08:52:26;;;;;;;14.70;10.00;;;;;;;9.58;96.29;100332.42;217152;1260;140537;-72
2024/02/17 08:57:30;;;;;;;13.00;10.50;;;;;;;9.59;96.27;100346.75;216837;1258;140556;-73
2024/02/17 09:02:35;;;;;;;15.30;12.40;;;;;;;9.58;96.38;100351.91;216806;1257;140649;-72
2024/02/17 09:07:40;;;;;;;15.50;12.80;;;;;;;9.59;96.47;100356.20;218280;1258;141175;-73
2024/02/17 09:12:44;;;;;;;16.50;13.00;;;;;;;9.61;96.50;100355.96;217377;1257;141249;-72
2024/02/17 09:17:48;;;;;;;10.80;9.50;;;;;;;9.68;96.51;100361.25;216911;1260;141017;-72
2024/02/17 09:22:52;;;;;;;16.20;11.90;;;;;;;9.82;96.81;100350.95;216732;1257;140863;-73
2024/02/17 09:27:57;;;;;;;12.30;10.40;;;;;;;10.00;96.85;100362.89;216541;1259;140479;-74
2024/02/17 09:33:01;;;;;;;15.70;11.10;;;;;;;10.13;96.58;100383.27;216880;1257;141071;-72
2024/02/17 09:38:06;;;;;;;15.10;11.60;;;;;;;10.13;96.36;100388.20;216696;1261;141607;-73
2024/02/17 09:43:10;;;;;;;14.90;11.90;;;;;;;10.14;96.32;100391.34;217829;1258;141251;-74
2024/02/17 09:48:15;;;;;;;18.10;13.00;;;;;;;10.18;96.13;100402.34;217288;1261;141404;-70
2024/02/17 09:53:21;;;;;;;12.60;10.60;;;;;;;10.21;96.24;100406.65;216739;1261;140721;-71
2024/02/17 09:58:26;;;;;;;12.00;10.60;;;;;;;10.24;96.30;100409.84;217905;1258;142816;-71
2024/02/17 10:03:32;;;;;;;10.60;9.10;;;;;;;10.24;96.35;100412.09;216614;1258;140633;-71
2024/02/17 10:08:37;;;;;;;10.70;9.40;;;;;;;10.28;96.17;100416.17;216627;1257;140881;-73
2024/02/17 10:13:42;;;;;;;14.30;9.60;;;;;;;10.36;95.90;100423.73;217492;1258;140606;-74
2024/02/17 10:18:47;;;;;;;8.60;7.70;;;;;;;10.46;95.80;100425.90;216722;1261;141256;-73
2024/02/17 10:23:52;;;;;;;10.10;8.80;;;;;;;10.54;95.92;100427.13;216764;1257;141570;-71
2024/02/17 10:28:57;;;;;;;9.30;8.00;;;;;;;10.62;95.70;100430.66;217428;1259;142657;-73
2024/02/17 10:34:02;;;;;;;9.00;7.70;;;;;;;10.68;95.37;100429.19;217718;1258;140351;-74
2024/02/17 10:39:07;;;;;;;9.20;7.30;;;;;;;10.77;95.46;100429.98;217532;1260;140143;-74
2024/02/17 10:44:11;;;;;;;11.70;8.30;;;;;;;10.93;95.40;100429.85;216671;1260;140516;-71
2024/02/17 10:49:32;;;;;;;8.50;7.40;;;;;;;11.12;95.15;100429.86;216749;1259;141140;-75
2024/02/17 10:54:37;;;;;;;8.40;7.60;;;;;;;11.26;94.64;100428.50;218593;1258;141404;-74
2024/02/17 10:59:43;;;;;;;8.50;5.70;;;;;;;11.32;94.48;100434.91;216704;1261;140528;-75
2024/02/17 11:04:48;;;;;;;7.20;6.60;;;;;;;11.21;93.81;100441.80;216656;1259;141138;-73
2024/02/17 11:10:05;;;;;;;7.00;6.10;;;;;;;11.14;93.72;100445.72;219216;1260;141385;-75
2024/02/17 11:15:11;;;;;;;7.60;6.30;;;;;;;11.52;94.10;100452.91;218567;1259;140201;-78
2024/02/17 11:20:15;;;;;;;5.90;5.30;;;;;;;11.67;93.20;100459.58;216693;1262;141198;-77
2024/02/17 11:25:40;;;;;;;7.80;5.50;;;;;;;11.63;92.58;100461.28;217057;1261;141137;-75
2024/02/17 11:30:54;;;;;;;5.70;5.20;;;;;;;11.54;92.14;100461.64;217202;1261;141768;-74
2024/02/17 11:36:03;;;;;;;6.10;5.50;;;;;;;11.45;91.90;100461.85;217171;1259;140679;-75
2024/02/17 11:41:07;;;;;;;7.00;4.30;;;;;;;11.32;91.69;100472.23;216748;1260;141039;-75
2024/02/17 11:46:13;;;;;;;6.10;5.50;;;;;;;11.11;91.12;100479.61;216999;1259;140498;-76
2024/02/17 11:51:22;;;;;;;6.80;6.10;;;;;;;11.06;91.54;100481.63;216716;1260;140688;-75
2024/02/17 11:56:32;;;;;;;7.30;5.20;;;;;;;11.10;91.97;100489.77;216865;1261;140789;-73
2024/02/17 12:01:37;;;;;;;8.80;5.40;;;;;;;11.18;91.85;100488.30;216724;1260;140006;-75
2024/02/17 12:06:41;;;;;;;9.20;4.90;;;;;;;11.16;91.44;100491.34;216932;1259;140643;-75
2024/02/17 12:11:45;;;;;;;6.60;4.80;;;;;;;11.15;90.94;100494.20;216533;1261;140366;-75
2024/02/17 12:16:49;;;;;;;5.50;5.00;;;;;;;11.08;90.87;100495.00;216694;1258;140046;-75
2024/02/17 12:21:54;;;;;;;3.90;3.60;;;;;;;11.02;90.52;100502.92;216679;1260;142012;-74
2024/02/17 12:27:03;;;;;;;4.70;3.70;;;;;;;10.96;90.43;100504.11;216809;1260;140399;-74
2024/02/17 12:32:21;;;;;;;6.50;5.00;;;;;;;10.96;90.32;100506.41;218173;1261;142348;-75
2024/02/17 12:37:25;;;;;;;6.40;2.80;;;;;;;10.91;89.80;100508.83;217006;1262;142197;-74
2024/02/17 12:42:29;;;;;;;3.20;2.50;;;;;;;10.84;89.58;100509.00;218063;1258;140586;-74
2024/02/17 12:47:34;;;;;;;3.40;2.90;;;;;;;10.84;89.61;100515.29;217973;1260;141415;-74
2024/02/17 12:52:38;;;;;;;2.90;2.70;;;;;;;10.86;89.39;100521.70;217721;1258;140875;-74
2024/02/17 12:57:43;;;;;;;5.60;3.00;;;;;;;10.90;89.10;100521.10;216730;1260;141880;-73
2024/02/17 13:02:48;;;;;;;3.80;3.40;;;;;;;10.86;89.07;100525.19;219763;1258;140949;-74
2024/02/17 13:07:52;;;;;;;3.80;3.40;;;;;;;10.84;89.05;100530.63;217171;1262;142200;-74
2024/02/17 13:12:57;;;;;;;2.40;2.10;;;;;;;10.83;89.04;100530.13;216860;1259;140388;-73
2024/02/17 13:18:02;;;;;;;3.00;2.60;;;;;;;10.80;88.53;100535.98;216960;1261;141214;-74
2024/02/17 13:23:08;;;;;;;6.40;3.70;;;;;;;10.76;88.45;100548.89;217132;1261;140718;-75
2024/02/17 13:28:13;;;;;;;2.80;2.60;;;;;;;10.73;88.33;100550.55;216753;1261;140973;-72
2024/02/17 13:33:17;;;;;;;3.80;2.20;;;;;;;10.70;87.94;100560.27;216856;1261;141695;-74
2024/02/17 13:38:21;;;;;;;3.40;2.40;;;;;;;10.73;87.55;100557.48;216726;1261;140568;-73
2024/02/17 13:43:33;;;;;;;3.10;2.80;;;;;;;10.74;87.30;100555.46;216793;1262;140114;-73
2024/02/17 13:48:37;;;;;;;4.40;3.80;;;;;;;10.74;87.20;100552.10;217339;1261;141126;-73
2024/02/17 13:53:41;;;;;;;4.10;3.70;;;;;;;10.77;86.80;100565.42;216733;1259;141166;-74
2024/02/17 13:58:46;;;;;;;5.50;3.00;;;;;;;10.79;86.72;100572.42;216690;1259;140230;-75
2024/02/17 14:03:50;;;;;;;2.30;2.10;;;;;;;10.78;86.73;100578.63;216692;1261;141374;-72
2024/02/17 14:08:55;;;;;;;5.10;2.50;;;;;;;10.75;86.61;100581.52;217273;1261;140420;-73
2024/02/17 14:14:01;;;;;;;13.50;8.20;;;;;;;10.70;86.55;100589.52;217154;1260;141394;-74
2024/02/17 14:19:06;;;;;;;4.10;2.80;;;;;;;10.69;86.66;100586.54;217236;1262;141236;-75
2024/02/17 14:24:10;;;;;;;2.90;2.40;;;;;;;10.63;86.45;100597.69;217585;1262;140807;-73
2024/02/17 14:29:14;;;;;;;3.30;2.80;;;;;;;10.47;86.22;100616.38;217385;1258;140228;-74
2024/02/17 14:34:17;;;;;;;2.50;2.30;;;;;;;10.35;86.36;100639.77;218059;1261;140704;-69
2024/02/17 14:39:21;;;;;;;2.20;2.10;;;;;;;10.16;86.12;100657.08;216836;1261;141700;-70
2024/02/17 14:44:26;;;;;;;2.30;2.10;;;;;;;9.90;86.11;100670.80;216982;1261;140807;-70
2024/02/17 14:49:30;;;;;;;4.00;2.90;;;;;;;9.70;86.49;100677.02;218893;1257;140087;-72
2024/02/17 14:54:34;;;;;;;3.10;2.90;;;;;;;9.54;86.70;100693.35;219436;1260;140926;-72
2024/02/17 14:59:40;;;;;;;3.90;2.50;;;;;;;9.40;86.95;100706.63;217115;1262;139991;-71
2024/02/17 15:04:44;;;;;;;6.90;2.70;;;;;;;9.23;86.98;100715.67;216928;1262;139743;-73
2024/02/17 15:09:48;;;;;;;4.60;3.60;;;;;;;8.95;86.41;100728.45;216970;1262;140141;-72
2024/02/17 15:14:56;;;;;;;7.80;3.70;;;;;;;8.73;86.51;100733.90;216987;1259;140814;-70
2024/02/17 15:20:01;;;;;;;5.10;2.70;;;;;;;8.56;86.43;100739.84;219359;1261;140457;-72
2024/02/17 15:25:06;;;;;;;5.20;3.40;;;;;;;8.42;86.55;100749.57;216991;1260;140331;-71
2024/02/17 15:30:11;;;;;;;8.30;3.90;;;;;;;8.36;86.91;100756.39;217098;1261;140237;-71
2024/02/17 15:35:16;;;;;;;4.20;3.70;;;;;;;8.31;87.00;100759.61;218228;1258;140861;-72
2024/02/17 15:40:34;;;;;;;4.20;3.80;;;;;;;8.29;86.98;100770.88;217005;1260;140421;-71
2024/02/17 15:45:38;;;;;;;5.90;4.60;;;;;;;8.25;86.85;100781.44;217105;1262;140689;-71
2024/02/17 15:50:43;;;;;;;5.90;3.00;;;;;;;8.19;86.89;100784.71;218326;1257;140819;-71
2024/02/17 15:55:49;;;;;;;5.20;3.70;;;;;;;8.11;86.56;100798.20;217003;1260;140754;-71
2024/02/17 16:00:54;;;;;;;8.20;4.20;;;;;;;8.05;86.83;100808.05;216853;1257;140843;-71
2024/02/17 16:06:05;;;;;;;4.40;3.20;;;;;;;8.02;87.07;100816.39;217191;1260;140358;-71
2024/02/17 16:11:11;;;;;;;7.10;4.40;;;;;;;8.00;87.09;100827.24;216721;1258;139851;-71
2024/02/17 16:16:16;;;;;;;6.00;3.90;;;;;;;7.97;87.16;100836.85;217520;1260;140830;-73
2024/02/17 16:21:22;;;;;;;3.20;2.80;;;;;;;7.89;86.98;100855.86;216896;1262;140012;-69
2024/02/17 16:26:31;;;;;;;9.40;3.40;;;;;;;7.76;86.64;100870.51;216629;1260;140977;-73
2024/02/17 16:31:35;;;;;;;4.10;3.20;;;;;;;7.63;86.61;100886.99;217160;1261;141050;-71
2024/02/17 16:36:40;;;;;;;2.70;2.50;;;;;;;7.56;86.48;100897.67;216335;1262;359495;-71
2024/02/17 16:41:50;;;;;;;2.60;2.40;;;;;;;7.52;86.04;100911.45;216313;1260;142487;-69
2024/02/17 16:46:54;;;;;;;2.10;2.00;;;;;;;7.47;85.91;100919.17;219284;1259;140443;-71
2024/02/17 16:51:58;;;;;;;3.60;2.20;;;;;;;7.41;85.55;100935.59;218123;1259;140346;-70
2024/02/17 16:57:05;;;;;;;3.70;2.20;;;;;;;7.40;85.51;100947.44;218632;1261;141318;-71
2024/02/17 17:02:11;;;;;;;4.50;2.70;;;;;;;7.40;85.22;100955.13;219497;1262;140626;-69
2024/02/17 17:07:17;;;;;;;8.40;2.30;;;;;;;7.42;85.29;100971.43;219425;1260;140311;-70
2024/02/17 17:12:21;;;;;;;3.40;2.80;;;;;;;7.37;84.89;100981.90;219090;1262;139953;-69
2024/02/17 17:17:25;;;;;;;2.20;1.60;;;;;;;7.34;84.74;100987.77;218064;1262;140455;-69
2024/02/17 17:22:29;;;;;;;2.40;1.80;;;;;;;7.26;84.46;100993.55;217915;1263;140062;-71
2024/02/17 17:27:49;;;;;;;1.80;1.70;;;;;;;7.18;84.32;101001.41;216828;1263;141355;-70
2024/02/17 17:32:52;;;;;;;4.00;1.90;;;;;;;7.11;84.27;101014.16;218327;1260;140418;-71
2024/02/17 17:37:57;;;;;;;3.50;1.30;;;;;;;7.06;84.25;101020.00;217370;1260;140616;-70
2024/02/17 17:43:01;;;;;;;2.60;1.40;;;;;;;7.06;84.11;101026.11;217626;1262;140562;-72
2024/02/17 17:48:10;;;;;;;1.60;1.50;;;;;;;7.03;84.16;101034.04;216757;1262;142700;-74
2024/02/17 17:53:15;;;;;;;3.20;1.50;;;;;;;6.98;83.83;101044.73;216803;1261;139937;-72
2024/02/17 17:58:19;;;;;;;3.60;1.70;;;;;;;6.93;83.70;101049.77;216857;1262;141110;-72
2024/02/17 18:03:25;;;;;;;2.20;1.50;;;;;;;6.88;83.58;101056.67;218241;1261;140534;-71
2024/02/17 18:08:30;;;;;;;3.80;2.80;;;;;;;6.86;83.42;101061.20;217373;1260;140180;-71
2024/02/17 18:13:34;;;;;;;1.30;1.00;;;;;;;6.82;83.52;101061.98;216622;1261;140126;-71
2024/02/17 18:18:37;;;;;;;2.10;1.90;;;;;;;6.77;83.41;101070.83;216627;1261;139747;-71
2024/02/17 18:23:42;;;;;;;3.30;1.30;;;;;;;6.73;83.39;101079.65;217368;1259;155369;-71
2024/02/17 18:28:46;;;;;;;2.10;1.20;;;;;;;6.72;83.41;101086.44;217605;1259;139869;-71
2024/02/17 18:33:50;;;;;;;5.20;2.60;;;;;;;6.69;83.08;101090.52;216770;1260;140124;-70
2024/02/17 18:38:54;;;;;;;5.00;2.50;;;;;;;6.68;83.07;101090.42;218678;1260;140209;-71
2024/02/17 18:43:58;;;;;;;4.00;2.00;;;;;;;6.64;82.96;101093.39;219175;1260;141102;-70
2024/02/17 18:49:03;;;;;;;1.50;1.20;;;;;;;6.61;82.91;101097.58;217045;1261;139997;-71
2024/02/17 18:54:07;;;;;;;1.80;1.70;;;;;;;6.58;82.80;101107.20;219568;1261;140963;-72
2024/02/17 18:59:11;;;;;;;5.60;2.20;;;;;;;6.55;82.56;101111.77;217620;1260;140522;-69
2024/02/17 19:04:15;;;;;;;3.10;1.80;;;;;;;6.54;82.43;101116.96;218284;1259;140661;-68
2024/02/17 19:09:19;;;;;;;3.80;2.00;;;;;;;6.51;82.50;101126.67;219666;1260;140796;-70
2024/02/17 19:14:26;;;;;;;4.90;1.50;;;;;;;6.48;82.63;101137.42;217232;1261;140905;-69
2024/02/17 19:19:30;;;;;;;3.00;1.60;;;;;;;6.42;82.20;101139.47;216651;1262;140182;-69
2024/02/17 19:24:34;;;;;;;2.60;2.30;;;;;;;6.37;82.64;101144.88;217432;1260;140579;-71
2024/02/17 19:29:39;;;;;;;1.80;1.50;;;;;;;6.35;82.27;101156.57;217713;1261;139972;-71
2024/02/17 19:34:43;;;;;;;1.60;1.20;;;;;;;6.31;82.01;101155.23;217336;1259;141006;-71
2024/02/17 19:39:48;;;;;;;3.90;1.40;;;;;;;6.27;82.30;101166.26;217604;1260;140037;-70
2024/02/17 19:44:51;;;;;;;2.40;2.00;;;;;;;6.24;81.88;101167.66;216965;1263;140110;-70
2024/02/17 19:49:56;;;;;;;2.00;0.90;;;;;;;6.22;82.24;101171.84;217674;1261;141583;-70
2024/02/17 19:55:01;;;;;;;2.30;1.30;;;;;;;6.17;82.22;101183.87;216644;1263;140100;-70
2024/02/17 20:00:05;;;;;;;2.00;1.10;;;;;;;6.14;82.32;101189.95;216656;1263;139904;-70
2024/02/17 20:05:10;;;;;;;1.80;1.70;;;;;;;6.12;81.91;101193.70;218850;1260;142159;-72
2024/02/17 20:10:15;;;;;;;2.60;1.80;;;;;;;6.11;82.29;101206.79;216566;1261;140045;-69
2024/02/17 20:15:20;;;;;;;1.70;1.50;;;;;;;6.02;81.61;101214.34;218033;1259;140885;-70
2024/02/17 20:20:24;;;;;;;3.00;1.50;;;;;;;5.94;81.51;101229.16;217441;1261;140305;-70
2024/02/17 20:25:30;;;;;;;4.30;1.80;;;;;;;5.88;81.74;101235.58;216754;1260;140026;-69
2024/02/17 20:30:35;;;;;;;2.40;1.50;;;;;;;5.82;81.53;101240.26;219249;1259;142104;-70
2024/02/17 20:35:39;;;;;;;1.30;1.20;;;;;;;5.80;81.45;101249.16;217492;1262;141375;-69
2024/02/17 20:40:43;;;;;;;2.00;1.80;;;;;;;5.77;81.85;101252.33;219662;1259;140403;-71
2024/02/17 20:45:48;;;;;;;1.80;1.20;;;;;;;5.74;81.57;101260.20;219615;1259;140676;-70
2024/02/17 20:50:54;;;;;;;3.70;1.40;;;;;;;5.71;81.77;101261.55;219750;1259;141228;-70
2024/02/17 20:55:58;;;;;;;1.40;1.30;;;;;;;5.66;81.67;101269.65;219185;1259;140176;-70
2024/02/17 21:01:02;;;;;;;1.50;1.40;;;;;;;5.63;81.56;101274.48;216613;1261;139899;-70
2024/02/17 21:06:07;;;;;;;4.30;1.80;;;;;;;5.60;81.64;101281.14;218445;1260;141100;-72
2024/02/17 21:11:15;;;;;;;2.10;1.90;;;;;;;5.59;81.38;101282.96;218139;1259;140395;-73
2024/02/17 21:16:20;;;;;;;2.50;1.90;;;;;;;5.58;81.49;101288.52;216923;1259;141452;-73
2024/02/17 21:21:26;;;;;;;2.60;2.10;;;;;;;5.55;81.81;101297.83;218393;1259;210638;-73
2024/02/17 21:26:34;;;;;;;4.50;3.00;;;;;;;5.46;81.41;101295.86;217576;1262;140570;-73
2024/02/17 21:31:40;;;;;;;2.60;2.30;;;;;;;5.37;81.47;101302.05;216567;1259;237473;-72
2024/02/17 21:36:46;;;;;;;3.10;1.90;;;;;;;5.33;81.68;101306.07;217431;1259;139981;-72
2024/02/17 21:41:50;;;;;;;9.00;3.60;;;;;;;5.27;81.71;101314.25;218123;1260;141004;-71
2024/02/17 21:46:55;;;;;;;5.10;2.60;;;;;;;5.22;81.56;101315.00;216640;1259;139999;-70
2024/02/17 21:52:00;;;;;;;5.90;3.00;;;;;;;5.19;81.58;101320.06;218126;1257;140475;-72
2024/02/17 21:57:07;;;;;;;4.30;3.10;;;;;;;5.18;81.56;101329.58;217723;1260;140897;-70
2024/02/17 22:02:11;;;;;;;3.80;2.80;;;;;;;5.18;81.73;101334.67;216935;1260;140505;-72
2024/02/17 22:07:15;;;;;;;3.40;2.40;;;;;;;5.19;82.02;101347.23;217287;1260;139932;-72
2024/02/17 22:12:19;;;;;;;5.40;2.20;;;;;;;5.18;81.67;101353.34;216705;1259;140637;-70
2024/02/17 22:17:24;;;;;;;3.00;2.70;;;;;;;5.15;81.72;101360.70;216901;1259;141082;-70
2024/02/17 22:22:29;;;;;;;5.90;2.50;;;;;;;5.12;81.32;101365.11;217552;1259;140386;-69
2024/02/17 22:27:32;;;;;;;3.20;2.70;;;;;;;5.06;81.67;101375.29;216972;1260;140314;-72
2024/02/17 22:32:36;;;;;;;3.90;2.60;;;;;;;5.04;81.57;101381.13;216946;1261;140974;-71
2024/02/17 22:37:41;;;;;;;2.50;1.80;;;;;;;5.00;81.68;101378.30;218424;1259;141408;-76
2024/02/17 22:42:45;;;;;;;5.00;2.60;;;;;;;4.97;81.67;101389.51;218586;1259;140014;-76
2024/02/17 22:47:50;;;;;;;3.70;2.10;;;;;;;4.96;81.52;101388.88;216786;1258;140051;-75
2024/02/17 22:52:57;;;;;;;2.80;2.40;;;;;;;4.96;81.57;101396.61;216539;1259;140871;-72
2024/02/17 22:58:01;;;;;;;3.30;2.50;;;;;;;4.94;81.41;101400.48;218607;1259;140205;-75
2024/02/17 23:03:06;;;;;;;5.10;3.30;;;;;;;4.92;81.40;101406.25;217921;1259;140175;-72
2024/02/17 23:08:11;;;;;;;2.90;2.40;;;;;;;4.89;81.79;101405.83;217076;1262;140770;-72
2024/02/17 23:13:18;;;;;;;2.70;2.00;;;;;;;4.81;81.48;101416.32;218079;1259;139730;-71
2024/02/17 23:18:22;;;;;;;2.10;1.90;;;;;;;4.69;81.58;101426.84;217102;1259;140334;-74